Time;durP1;ratioP1;P1;durP2;ratioP2;P2;SDS_P1;SDS_P2;PMS_P1;PMS_P2;Temp;Humidity;BMP_temperature;BMP_pressure;BME280_temperature;BME280_humidity;BME280_pressure;Samples;Min_cycle;Max_cycle;Signal;HPM_P1;HPM_P2
2021/10/28 00:13:23;;;;;;;15.73;12.10;;;;;;;;;;6212167;23;20884;-74
2021/10/28 00:15:56;;;;;;;14.37;11.80;;;;;;;;;;6212239;23;20453;-75
2021/10/28 00:18:44;;;;;;;15.20;13.13;;;;;;;;;;6212970;23;20829;-75
2021/10/28 00:21:07;;;;;;;12.60;11.30;;;;;;;;;;6211513;23;20417;-74
2021/10/28 00:23:41;;;;;;;11.40;10.20;;;;;;;;;;6211588;23;20458;-75
2021/10/28 00:26:07;;;;;;;13.03;11.60;;;;;;;;;;6212339;23;20163;-75
2021/10/28 00:28:35;;;;;;;13.70;12.30;;;;;;;;;;6212615;23;20846;-75
2021/10/28 00:31:01;;;;;;;18.03;11.97;;;;;;;;;;6212337;23;20413;-75
2021/10/28 00:33:26;;;;;;;13.60;12.20;;;;;;;;;;6209926;23;20363;-75
2021/10/28 00:35:51;;;;;;;16.63;11.90;;;;;;;;;;6210803;23;20218;-75
2021/10/28 00:38:17;;;;;;;16.33;12.00;;;;;;;;;;6211859;23;20147;-75
2021/10/28 00:40:42;;;;;;;14.73;11.37;;;;;;;;;;6212028;23;20175;-75
2021/10/28 00:43:08;;;;;;;14.20;10.80;;;;;;;;;;6212035;23;20363;-73
2021/10/28 00:45:33;;;;;;;12.30;11.03;;;;;;;;;;6211983;23;20168;-75
2021/10/28 00:47:58;;;;;;;15.10;11.97;;;;;;;;;;6211712;23;20154;-75
2021/10/28 00:50:24;;;;;;;16.27;11.40;;;;;;;;;;6212274;23;20485;-75
2021/10/28 00:52:49;;;;;;;22.30;12.13;;;;;;;;;;6211463;23;20144;-75
2021/10/28 00:55:15;;;;;;;21.10;11.50;;;;;;;;;;6211880;23;20191;-75
2021/10/28 00:57:40;;;;;;;13.57;11.13;;;;;;;;;;6211241;23;20148;-75
2021/10/28 01:00:06;;;;;;;13.23;11.63;;;;;;;;;;6211435;23;20234;-75
2021/10/28 01:02:31;;;;;;;15.70;12.13;;;;;;;;;;6211050;23;20150;-75
2021/10/28 01:04:57;;;;;;;14.77;12.47;;;;;;;;;;6211784;23;20210;-75
2021/10/28 01:07:23;;;;;;;14.10;12.30;;;;;;;;;;6211561;23;20140;-75
2021/10/28 01:09:48;;;;;;;16.97;12.17;;;;;;;;;;6212262;23;20363;-75
2021/10/28 01:12:13;;;;;;;17.30;12.60;;;;;;;;;;6212070;23;20401;-75
2021/10/28 01:14:39;;;;;;;24.77;12.43;;;;;;;;;;6187141;23;20175;-75
2021/10/28 01:17:05;;;;;;;13.37;11.57;;;;;;;;;;6213449;23;20155;-74
2021/10/28 01:19:30;;;;;;;17.70;12.33;;;;;;;;;;6214029;23;20371;-75
2021/10/28 01:21:55;;;;;;;15.90;11.60;;;;;;;;;;6214180;23;20151;-75
2021/10/28 01:24:20;;;;;;;18.73;12.03;;;;;;;;;;6213172;23;20172;-75
2021/10/28 01:26:46;;;;;;;15.97;11.80;;;;;;;;;;6213747;23;20151;-75
2021/10/28 01:29:12;;;;;;;12.77;10.83;;;;;;;;;;6213747;23;20144;-75
2021/10/28 01:31:37;;;;;;;18.80;12.50;;;;;;;;;;6213521;23;20421;-75
2021/10/28 01:34:04;;;;;;;17.40;12.53;;;;;;;;;;6213207;23;20184;-75
2021/10/28 01:36:29;;;;;;;12.37;11.17;;;;;;;;;;6213280;23;20766;-75
2021/10/28 01:38:55;;;;;;;15.23;11.70;;;;;;;;;;6212556;23;20446;-75
2021/10/28 01:41:20;;;;;;;13.23;11.70;;;;;;;;;;6212748;23;20503;-74
2021/10/28 01:43:46;;;;;;;15.80;12.20;;;;;;;;;;6212489;23;20147;-74
2021/10/28 01:46:12;;;;;;;15.50;13.17;;;;;;;;;;6213635;23;20176;-75
2021/10/28 01:48:39;;;;;;;15.53;12.53;;;;;;;;;;6214131;23;20199;-75
2021/10/28 01:51:05;;;;;;;15.33;12.50;;;;;;;;;;6213205;23;20143;-75
2021/10/28 01:53:30;;;;;;;12.67;11.37;;;;;;;;;;6213246;23;20378;-74
2021/10/28 01:55:55;;;;;;;18.47;13.43;;;;;;;;;;6186800;23;20171;-75
2021/10/28 01:58:23;;;;;;;14.83;11.77;;;;;;;;;;6213939;23;20152;-74
2021/10/28 02:00:49;;;;;;;13.83;12.23;;;;;;;;;;6213240;23;20152;-75
2021/10/28 02:03:14;;;;;;;18.67;12.07;;;;;;;;;;6186603;23;20370;-75
2021/10/28 02:05:39;;;;;;;14.07;11.70;;;;;;;;;;6213423;23;20172;-74
2021/10/28 02:08:05;;;;;;;15.37;12.50;;;;;;;;;;6186962;23;20653;-75
2021/10/28 02:10:30;;;;;;;16.77;12.73;;;;;;;;;;6213529;23;20200;-75
2021/10/28 02:12:56;;;;;;;15.33;12.43;;;;;;;;;;6212791;23;20148;-75
2021/10/28 02:15:22;;;;;;;15.57;12.27;;;;;;;;;;6212727;23;20163;-75
2021/10/28 02:17:48;;;;;;;20.87;12.93;;;;;;;;;;6187283;23;20383;-75
2021/10/28 02:20:14;;;;;;;14.23;12.40;;;;;;;;;;6212864;23;20148;-75
2021/10/28 02:22:41;;;;;;;14.07;11.60;;;;;;;;;;6213972;23;20170;-75
2021/10/28 02:25:07;;;;;;;17.87;11.20;;;;;;;;;;6185370;23;20758;-75
2021/10/28 02:27:34;;;;;;;13.63;11.77;;;;;;;;;;6213787;23;20364;-75
2021/10/28 02:30:00;;;;;;;16.00;12.50;;;;;;;;;;6213728;23;20386;-75
2021/10/28 02:32:25;;;;;;;15.00;12.13;;;;;;;;;;6213388;23;20398;-75
2021/10/28 02:34:50;;;;;;;14.30;12.80;;;;;;;;;;6212541;23;20184;-75
2021/10/28 02:37:17;;;;;;;17.37;13.13;;;;;;;;;;6213643;23;20587;-75
2021/10/28 02:39:42;;;;;;;17.20;12.53;;;;;;;;;;6211597;23;20487;-75
2021/10/28 02:42:07;;;;;;;20.60;11.90;;;;;;;;;;6213927;23;20368;-75
2021/10/28 02:44:33;;;;;;;16.70;13.80;;;;;;;;;;6212703;23;20176;-75
2021/10/28 02:46:58;;;;;;;18.10;12.50;;;;;;;;;;6213430;23;20532;-77
2021/10/28 02:49:25;;;;;;;15.60;14.00;;;;;;;;;;6213019;23;20367;-75
2021/10/28 02:51:50;;;;;;;17.17;13.60;;;;;;;;;;6212976;23;20479;-75
2021/10/28 02:54:16;;;;;;;16.77;13.23;;;;;;;;;;6212719;23;20387;-75
2021/10/28 02:56:44;;;;;;;15.13;13.57;;;;;;;;;;6213591;23;20144;-78
2021/10/28 02:59:10;;;;;;;26.70;13.40;;;;;;;;;;6186153;23;20371;-75
2021/10/28 03:01:42;;;;;;;16.93;13.23;;;;;;;;;;6212956;23;20446;-75
2021/10/28 03:04:08;;;;;;;15.43;12.57;;;;;;;;;;6212865;23;20206;-75
2021/10/28 03:06:37;;;;;;;15.30;12.80;;;;;;;;;;6212802;23;20742;-75
2021/10/28 03:09:03;;;;;;;16.83;12.70;;;;;;;;;;6213278;23;20458;-75
2021/10/28 03:11:28;;;;;;;13.77;12.30;;;;;;;;;;6213482;23;20386;-75
2021/10/28 03:13:53;;;;;;;15.50;13.03;;;;;;;;;;6212960;23;20186;-75
2021/10/28 03:27:09;;;;;;;19.20;13.70;;;;;;;;;;6169567;23;20367;-76
2021/10/28 03:29:34;;;;;;;16.10;12.97;;;;;;;;;;6212683;23;20374;-75
2021/10/28 03:31:59;;;;;;;14.40;12.17;;;;;;;;;;6213034;23;20149;-75
2021/10/28 03:34:25;;;;;;;16.70;12.73;;;;;;;;;;6191240;23;20195;-75
2021/10/28 03:40:21;;;;;;;14.90;11.73;;;;;;;;;;6222708;23;20205;-75
2021/10/28 04:16:24;;;;;;;16.17;11.93;;;;;;;;;;6212389;23;20346;-75
2021/10/28 04:30:18;;;;;;;11.17;9.83;;;;;;;;;;6212118;23;20374;-75
2021/10/28 04:32:44;;;;;;;13.63;11.27;;;;;;;;;;6212905;23;20422;-75
2021/10/28 04:35:09;;;;;;;13.93;10.63;;;;;;;;;;6212501;23;20406;-75
2021/10/28 04:37:36;;;;;;;16.47;10.33;;;;;;;;;;6212589;23;20371;-75
2021/10/28 04:40:02;;;;;;;17.57;10.43;;;;;;;;;;6212515;23;20150;-75
2021/10/28 04:42:27;;;;;;;15.60;10.40;;;;;;;;;;6212535;23;20775;-75
2021/10/28 04:44:52;;;;;;;12.87;10.13;;;;;;;;;;6212340;23;20671;-75
2021/10/28 04:47:18;;;;;;;14.40;9.90;;;;;;;;;;6211163;23;20476;-75
2021/10/28 04:49:43;;;;;;;15.70;10.97;;;;;;;;;;6212533;23;20144;-75
2021/10/28 04:52:08;;;;;;;12.13;9.60;;;;;;;;;;6211945;23;20598;-75
2021/10/28 04:54:33;;;;;;;11.37;9.17;;;;;;;;;;6212045;23;20242;-75
2021/10/28 04:56:59;;;;;;;11.53;10.23;;;;;;;;;;6210182;23;20151;-75
2021/10/28 04:59:24;;;;;;;11.63;10.07;;;;;;;;;;6212336;23;20155;-75
2021/10/28 05:01:49;;;;;;;11.73;10.03;;;;;;;;;;6212076;23;20527;-75
2021/10/28 05:04:15;;;;;;;14.70;10.30;;;;;;;;;;6211590;23;20546;-76
2021/10/28 05:06:40;;;;;;;14.90;9.07;;;;;;;;;;6212334;23;20522;-75
2021/10/28 05:09:05;;;;;;;12.43;10.40;;;;;;;;;;6211953;23;25050;-75
2021/10/28 05:11:31;;;;;;;12.67;9.50;;;;;;;;;;6184945;23;25049;-75
2021/10/28 05:13:56;;;;;;;16.00;11.53;;;;;;;;;;6211165;23;25030;-75
2021/10/28 05:16:21;;;;;;;12.03;9.53;;;;;;;;;;6210937;23;20212;-75
2021/10/28 05:18:47;;;;;;;14.27;9.87;;;;;;;;;;6212529;23;25111;-75
2021/10/28 05:21:13;;;;;;;11.33;10.23;;;;;;;;;;6210929;23;25053;-75
2021/10/28 05:23:38;;;;;;;15.60;11.20;;;;;;;;;;6209828;23;25065;-76
2021/10/28 05:26:04;;;;;;;13.53;10.13;;;;;;;;;;6212258;23;25076;-76
2021/10/28 05:28:30;;;;;;;11.23;9.90;;;;;;;;;;6185214;23;25058;-77
2021/10/28 05:30:55;;;;;;;13.80;10.03;;;;;;;;;;6211533;23;25058;-77
2021/10/28 05:33:20;;;;;;;11.37;10.03;;;;;;;;;;6212066;23;25052;-77
2021/10/28 05:35:46;;;;;;;13.17;10.03;;;;;;;;;;6211237;23;25068;-75
2021/10/28 05:38:11;;;;;;;12.10;8.67;;;;;;;;;;6212861;23;25080;-75
2021/10/28 05:40:36;;;;;;;11.43;9.40;;;;;;;;;;6212326;23;25053;-75
2021/10/28 05:43:02;;;;;;;13.30;9.87;;;;;;;;;;6210525;23;25107;-75
2021/10/28 05:45:29;;;;;;;13.60;10.50;;;;;;;;;;6183384;23;20518;-79
2021/10/28 05:47:54;;;;;;;11.90;9.97;;;;;;;;;;6209445;23;20165;-79
2021/10/28 05:50:21;;;;;;;11.80;9.33;;;;;;;;;;6209593;23;25075;-79
2021/10/28 05:52:48;;;;;;;13.90;11.03;;;;;;;;;;6212074;23;25098;-77
2021/10/28 05:55:14;;;;;;;11.33;9.40;;;;;;;;;;6211246;23;20717;-77
2021/10/28 05:57:39;;;;;;;16.57;11.40;;;;;;;;;;6211959;23;20393;-78
2021/10/28 06:00:08;;;;;;;17.00;12.37;;;;;;;;;;6213140;23;20160;-77
2021/10/28 06:02:34;;;;;;;15.13;10.47;;;;;;;;;;6213908;23;25042;-77
2021/10/28 06:04:59;;;;;;;18.43;11.20;;;;;;;;;;6213976;23;20420;-77
2021/10/28 06:07:25;;;;;;;19.43;11.40;;;;;;;;;;6211508;23;20845;-77
2021/10/28 06:09:50;;;;;;;17.10;10.90;;;;;;;;;;6213117;23;20176;-78
2021/10/28 06:12:16;;;;;;;14.20;10.60;;;;;;;;;;6212563;23;20144;-77
2021/10/28 06:14:41;;;;;;;14.77;11.53;;;;;;;;;;6215571;23;20167;-77
2021/10/28 06:17:12;;;;;;;20.70;12.50;;;;;;;;;;6213121;23;20155;-78
2021/10/28 06:19:37;;;;;;;13.77;12.27;;;;;;;;;;6212797;23;20602;-78
2021/10/28 06:22:03;;;;;;;15.33;12.60;;;;;;;;;;6186426;23;25083;-77
2021/10/28 06:24:31;;;;;;;15.50;12.40;;;;;;;;;;6213315;23;20297;-78
2021/10/28 06:26:56;;;;;;;15.07;11.93;;;;;;;;;;6214095;23;25153;-77
2021/10/28 06:29:22;;;;;;;17.20;14.00;;;;;;;;;;6214511;23;20388;-78
2021/10/28 06:31:48;;;;;;;14.30;12.63;;;;;;;;;;6214362;23;20167;-77
2021/10/28 06:34:21;;;;;;;18.27;14.80;;;;;;;;;;6212912;23;20221;-77
2021/10/28 06:36:48;;;;;;;16.03;13.57;;;;;;;;;;6213688;23;20439;-78
2021/10/28 06:39:14;;;;;;;20.13;14.53;;;;;;;;;;6214371;23;20375;-78
2021/10/28 06:41:39;;;;;;;16.57;12.57;;;;;;;;;;6213512;23;20816;-78
2021/10/28 06:44:04;;;;;;;19.73;13.57;;;;;;;;;;6212420;23;20221;-79
2021/10/28 06:46:30;;;;;;;18.37;14.17;;;;;;;;;;6213028;23;25042;-77
2021/10/28 06:48:55;;;;;;;17.47;12.90;;;;;;;;;;6186729;23;20166;-77
2021/10/28 06:51:21;;;;;;;17.70;13.03;;;;;;;;;;6212971;23;25055;-77
2021/10/28 06:54:00;;;;;;;18.80;14.20;;;;;;;;;;6210874;23;25053;-75
2021/10/28 07:04:33;;;;;;;17.17;14.07;;;;;;;;;;6212084;23;20915;-75
2021/10/28 07:06:59;;;;;;;18.77;14.00;;;;;;;;;;6212444;23;25063;-75
2021/10/28 07:09:33;;;;;;;18.83;14.53;;;;;;;;;;6212927;23;20568;-74
2021/10/28 07:14:41;;;;;;;16.67;14.50;;;;;;;;;;6218140;23;20440;-75
2021/10/28 07:17:17;;;;;;;21.63;15.30;;;;;;;;;;6211717;23;20375;-74
2021/10/28 07:27:33;;;;;;;19.03;15.30;;;;;;;;;;6212383;23;25068;-75
2021/10/28 07:30:25;;;;;;;20.27;15.17;;;;;;;;;;6213453;23;20138;-75
2021/10/28 07:35:49;;;;;;;19.60;14.23;;;;;;;;;;6214239;23;25065;-75
2021/10/28 08:29:16;;;;;;;18.50;13.37;;;;;;;;;;6212369;23;20173;-76
2021/10/28 08:31:42;;;;;;;16.23;12.00;;;;;;;;;;6212283;23;20358;-76
2021/10/28 08:34:07;;;;;;;21.20;14.20;;;;;;;;;;6211112;23;25109;-76
2021/10/28 08:36:38;;;;;;;18.10;13.60;;;;;;;;;;6212557;23;25046;-76
2021/10/28 08:39:03;;;;;;;19.77;13.90;;;;;;;;;;6212873;23;20146;-76
2021/10/28 08:41:29;;;;;;;17.53;12.87;;;;;;;;;;6212798;23;20429;-75
2021/10/28 08:43:55;;;;;;;18.60;12.63;;;;;;;;;;6212750;23;20236;-77
2021/10/28 08:46:22;;;;;;;20.73;12.80;;;;;;;;;;6211163;23;25049;-76
2021/10/28 08:48:54;;;;;;;12.63;11.10;;;;;;;;;;6212292;23;25089;-77
2021/10/28 09:24:15;;;;;;;15.37;9.70;;;;;;;;;;6210366;23;25093;-77
2021/10/28 09:26:53;;;;;;;11.40;9.43;;;;;;;;;;6210694;23;25088;-75
2021/10/28 09:46:18;;;;;;;11.13;8.83;;;;;;;;;;6213251;23;25115;-75
2021/10/28 09:51:15;;;;;;;13.73;10.30;;;;;;;;;;6212888;23;20371;-74
2021/10/28 09:54:04;;;;;;;24.63;10.20;;;;;;;;;;6212011;23;20371;-75
2021/10/28 09:59:20;;;;;;;13.60;9.57;;;;;;;;;;6214353;23;20390;-75
2021/10/28 10:01:46;;;;;;;12.90;9.20;;;;;;;;;;6213655;23;20825;-75
2021/10/28 10:04:12;;;;;;;9.90;8.87;;;;;;;;;;6211742;23;20518;-75
2021/10/28 10:06:41;;;;;;;17.40;10.07;;;;;;;;;;6213979;23;20501;-75
2021/10/28 10:09:06;;;;;;;13.47;9.13;;;;;;;;;;6214084;23;20194;-75
2021/10/28 10:11:32;;;;;;;12.93;9.40;;;;;;;;;;6213958;23;20363;-75
2021/10/28 10:13:58;;;;;;;11.20;8.80;;;;;;;;;;6211517;23;20521;-75
2021/10/28 10:16:23;;;;;;;10.83;8.47;;;;;;;;;;6186423;23;20497;-75
2021/10/28 10:18:50;;;;;;;11.50;8.27;;;;;;;;;;6214055;23;20183;-75
2021/10/28 10:24:07;;;;;;;13.40;8.80;;;;;;;;;;6221558;23;20444;-75
2021/10/28 10:27:09;;;;;;;11.20;8.43;;;;;;;;;;6213936;23;20489;-75
2021/10/28 11:30:43;;;;;;;7.63;6.80;;;;;;;;;;6214188;23;25096;-78
2021/10/28 12:47:23;;;;;;;8.40;5.17;;;;;;;;;;6222043;23;20481;-77
2021/10/28 14:00:22;;;;;;;6.07;3.97;;;;;;;;;;6212923;23;20371;-76
2021/10/28 15:29:12;;;;;;;7.87;7.13;;;;;;;;;;6213218;23;20347;-77
2021/10/28 15:36:55;;;;;;;7.83;7.00;;;;;;;;;;6213349;23;20378;-76
2021/10/28 15:39:47;;;;;;;8.13;7.10;;;;;;;;;;6213653;23;20454;-77
2021/10/28 16:22:22;;;;;;;9.40;7.80;;;;;;;;;;6212398;23;20371;-77
2021/10/28 16:24:48;;;;;;;9.40;7.87;;;;;;;;;;6210317;23;20391;-76
2021/10/28 16:27:13;;;;;;;11.77;9.07;;;;;;;;;;6209963;23;20155;-76
2021/10/28 16:29:38;;;;;;;10.60;8.30;;;;;;;;;;6211532;23;20155;-77
2021/10/28 16:32:04;;;;;;;7.83;7.03;;;;;;;;;;6212262;23;20219;-77
2021/10/28 16:34:29;;;;;;;7.60;6.67;;;;;;;;;;6212725;23;20182;-75
2021/10/28 16:36:55;;;;;;;11.97;8.67;;;;;;;;;;6212036;23;20144;-76
2021/10/28 16:39:21;;;;;;;8.23;7.43;;;;;;;;;;6212007;23;20494;-76
2021/10/28 16:41:47;;;;;;;8.93;6.80;;;;;;;;;;6209970;23;20182;-74
2021/10/28 16:44:14;;;;;;;8.53;6.90;;;;;;;;;;6211351;23;20684;-75
2021/10/28 16:46:39;;;;;;;7.80;6.83;;;;;;;;;;6211002;23;20469;-75
2021/10/28 16:49:05;;;;;;;7.90;7.03;;;;;;;;;;6210242;23;20368;-74
2021/10/28 16:51:31;;;;;;;12.30;7.20;;;;;;;;;;6211162;23;20658;-75
2021/10/28 16:53:56;;;;;;;10.13;7.00;;;;;;;;;;6209408;23;20434;-75
2021/10/28 16:56:22;;;;;;;8.50;6.97;;;;;;;;;;6210207;23;20151;-75
2021/10/28 16:58:47;;;;;;;9.73;6.90;;;;;;;;;;6211592;23;20143;-75
2021/10/28 17:01:13;;;;;;;6.50;5.90;;;;;;;;;;6210693;23;20147;-75
2021/10/28 17:03:38;;;;;;;7.30;6.10;;;;;;;;;;6209296;23;20154;-75
2021/10/28 17:06:07;;;;;;;8.80;6.50;;;;;;;;;;6211745;23;20222;-75
2021/10/28 17:08:32;;;;;;;8.23;7.20;;;;;;;;;;6211947;23;20148;-75
2021/10/28 17:10:58;;;;;;;8.10;6.43;;;;;;;;;;6211869;23;20818;-75
2021/10/28 17:13:23;;;;;;;9.50;7.07;;;;;;;;;;6208450;23;20605;-75
2021/10/28 17:15:49;;;;;;;8.33;7.03;;;;;;;;;;6211243;23;20172;-78
2021/10/28 17:18:14;;;;;;;8.73;6.30;;;;;;;;;;6212358;23;20152;-77
2021/10/28 17:20:40;;;;;;;9.07;7.00;;;;;;;;;;6211805;23;20148;-77
2021/10/28 17:23:06;;;;;;;7.17;5.80;;;;;;;;;;6212333;23;20147;-76
2021/10/28 17:25:37;;;;;;;6.97;6.27;;;;;;;;;;6211179;23;20186;-76
2021/10/28 17:28:02;;;;;;;6.60;5.50;;;;;;;;;;6212923;23;20689;-76
2021/10/28 17:30:27;;;;;;;9.10;6.47;;;;;;;;;;6211944;23;20374;-77
2021/10/28 17:32:53;;;;;;;6.37;5.80;;;;;;;;;;6211750;23;20151;-77
2021/10/28 17:35:18;;;;;;;6.40;5.80;;;;;;;;;;6212074;23;20230;-76
2021/10/28 17:37:43;;;;;;;6.57;5.47;;;;;;;;;;6212509;23;20247;-77
2021/10/28 17:40:09;;;;;;;6.90;5.80;;;;;;;;;;6212363;23;20575;-77
2021/10/28 17:42:35;;;;;;;7.00;6.27;;;;;;;;;;6212414;23;20621;-77
2021/10/28 17:45:01;;;;;;;7.00;6.30;;;;;;;;;;6210590;23;20176;-77
2021/10/28 17:47:27;;;;;;;6.10;5.50;;;;;;;;;;6211150;23;20480;-76
2021/10/28 17:49:59;;;;;;;6.23;5.63;;;;;;;;;;6183478;23;20375;-76
2021/10/28 17:52:24;;;;;;;6.30;5.70;;;;;;;;;;6205694;23;20147;-75
2021/10/28 17:54:50;;;;;;;6.47;5.87;;;;;;;;;;6208381;23;20379;-77
2021/10/28 17:57:15;;;;;;;5.93;5.30;;;;;;;;;;6213632;23;20206;-77
2021/10/28 17:59:42;;;;;;;8.10;5.70;;;;;;;;;;6210868;23;20567;-75
2021/10/28 18:02:08;;;;;;;7.80;5.70;;;;;;;;;;6209413;23;20223;-74
2021/10/28 18:04:33;;;;;;;6.43;5.83;;;;;;;;;;6212238;23;20927;-75
2021/10/28 18:06:58;;;;;;;7.43;5.30;;;;;;;;;;6211341;23;20946;-76
2021/10/28 18:09:24;;;;;;;8.17;5.27;;;;;;;;;;6211180;23;20172;-75
2021/10/28 18:11:54;;;;;;;6.03;5.20;;;;;;;;;;6208033;23;20144;-75
2021/10/28 18:14:20;;;;;;;6.03;5.43;;;;;;;;;;6209818;23;20238;-75
2021/10/28 18:16:46;;;;;;;6.37;5.70;;;;;;;;;;6211391;23;20429;-76
2021/10/28 18:19:11;;;;;;;5.90;5.40;;;;;;;;;;6212880;23;20826;-76
2021/10/28 18:21:39;;;;;;;6.20;5.60;;;;;;;;;;6212097;23;20560;-75
2021/10/28 18:24:04;;;;;;;6.90;6.20;;;;;;;;;;6212559;23;20172;-76
2021/10/28 18:26:30;;;;;;;5.53;5.03;;;;;;;;;;6212216;23;20725;-75
2021/10/28 18:28:56;;;;;;;5.87;5.37;;;;;;;;;;6212250;23;20367;-75
2021/10/28 18:31:22;;;;;;;6.50;5.13;;;;;;;;;;6212095;23;20414;-77
2021/10/28 18:33:49;;;;;;;5.50;4.83;;;;;;;;;;6211161;23;20148;-76
2021/10/28 18:36:14;;;;;;;7.50;5.27;;;;;;;;;;6212748;23;20996;-77
2021/10/28 18:38:45;;;;;;;8.70;5.40;;;;;;;;;;6213668;23;20374;-77
2021/10/28 18:41:10;;;;;;;7.73;5.60;;;;;;;;;;6184296;23;20148;-76
2021/10/28 18:43:35;;;;;;;8.13;5.63;;;;;;;;;;6183114;23;20391;-76
2021/10/28 18:46:01;;;;;;;5.93;5.33;;;;;;;;;;6186238;23;20202;-76
2021/10/28 18:48:26;;;;;;;5.70;5.20;;;;;;;;;;6212636;23;20148;-76
2021/10/28 18:50:53;;;;;;;6.50;5.33;;;;;;;;;;6212831;23;20532;-77
2021/10/28 18:53:18;;;;;;;5.80;5.20;;;;;;;;;;6212680;23;20144;-76
2021/10/28 18:55:44;;;;;;;7.00;5.33;;;;;;;;;;6212430;23;20726;-76
2021/10/28 18:58:09;;;;;;;6.03;5.53;;;;;;;;;;6212731;23;20168;-76
2021/10/28 19:00:35;;;;;;;8.20;5.80;;;;;;;;;;6213298;23;20151;-76
2021/10/28 19:03:00;;;;;;;6.97;5.60;;;;;;;;;;6185861;23;20176;-75
2021/10/28 19:05:26;;;;;;;5.87;5.30;;;;;;;;;;6212497;23;20214;-76
2021/10/28 19:07:51;;;;;;;7.53;5.00;;;;;;;;;;6212877;23;20505;-76
2021/10/28 19:10:16;;;;;;;5.23;4.73;;;;;;;;;;6212045;23;20151;-76
2021/10/28 19:12:42;;;;;;;5.80;5.30;;;;;;;;;;6212410;23;20194;-76
2021/10/28 19:15:08;;;;;;;5.27;4.77;;;;;;;;;;6211854;23;20175;-76
2021/10/28 19:17:34;;;;;;;5.20;4.80;;;;;;;;;;6213026;23;20148;-75
2021/10/28 19:20:00;;;;;;;5.93;5.27;;;;;;;;;;6212940;23;20825;-77
2021/10/28 19:22:30;;;;;;;6.90;4.90;;;;;;;;;;6210779;23;20592;-76
2021/10/28 19:24:57;;;;;;;7.33;5.33;;;;;;;;;;6209216;23;20419;-76
2021/10/28 19:27:23;;;;;;;10.13;5.80;;;;;;;;;;6210674;23;20359;-77
2021/10/28 19:29:53;;;;;;;6.03;5.30;;;;;;;;;;6212641;23;20367;-75
2021/10/28 19:32:22;;;;;;;6.20;5.60;;;;;;;;;;6211653;23;20783;-77
2021/10/28 19:34:47;;;;;;;5.23;4.73;;;;;;;;;;6212349;23;20472;-77
2021/10/28 19:37:21;;;;;;;6.53;5.20;;;;;;;;;;6211938;23;20883;-75
2021/10/28 19:47:30;;;;;;;6.87;5.60;;;;;;;;;;6220963;23;20394;-75
2021/10/28 19:49:56;;;;;;;4.70;4.30;;;;;;;;;;6211657;23;20707;-76
2021/10/28 19:52:21;;;;;;;6.93;4.97;;;;;;;;;;6212600;23;20144;-76
2021/10/28 19:54:47;;;;;;;5.80;5.20;;;;;;;;;;6211046;23;20164;-76
2021/10/28 19:57:18;;;;;;;5.70;5.10;;;;;;;;;;6210520;23;20140;-76
2021/10/28 19:59:50;;;;;;;7.60;5.13;;;;;;;;;;6211759;23;20657;-76
2021/10/28 20:03:18;;;;;;;5.43;4.93;;;;;;;;;;6210765;23;20572;-76
2021/10/28 20:20:03;;;;;;;5.03;4.40;;;;;;;;;;6213907;23;20722;-75
2021/10/28 20:21:05;;;;;;;5.53;4.63;;;;;;;;;;6176740;23;20371;-75
2021/10/28 20:23:30;;;;;;;6.93;4.90;;;;;;;;;;6211913;23;20433;-75
2021/10/28 20:25:56;;;;;;;4.73;4.33;;;;;;;;;;6211527;23;20176;-75
2021/10/28 20:28:21;;;;;;;5.50;5.00;;;;;;;;;;6212083;23;21036;-75
2021/10/28 20:30:58;;;;;;;5.90;4.77;;;;;;;;;;6212515;23;20147;-75
2021/10/28 20:33:31;;;;;;;12.10;5.00;;;;;;;;;;6211652;23;20213;-75
2021/10/28 20:38:37;;;;;;;5.57;5.07;;;;;;;;;;6221864;23;20386;-75
2021/10/28 20:41:04;;;;;;;6.43;5.17;;;;;;;;;;6211766;23;20429;-75
2021/10/28 20:43:29;;;;;;;5.60;5.10;;;;;;;;;;6211850;23;20230;-75
2021/10/28 20:45:55;;;;;;;5.83;5.23;;;;;;;;;;6211772;23;20446;-75
2021/10/28 20:48:20;;;;;;;7.70;4.93;;;;;;;;;;6212224;23;20649;-75
2021/10/28 20:50:45;;;;;;;5.97;5.00;;;;;;;;;;6185452;23;20156;-75
2021/10/28 20:53:11;;;;;;;10.00;6.07;;;;;;;;;;6210311;23;20159;-75
2021/10/28 20:55:36;;;;;;;6.23;5.63;;;;;;;;;;6184512;23;20301;-75
2021/10/28 20:58:01;;;;;;;7.00;6.20;;;;;;;;;;6211113;23;20148;-75
2021/10/28 21:00:27;;;;;;;6.30;5.70;;;;;;;;;;6185440;23;20237;-75
2021/10/28 21:02:54;;;;;;;8.10;6.20;;;;;;;;;;6211221;23;20144;-75
2021/10/28 21:05:22;;;;;;;6.73;6.13;;;;;;;;;;6211534;23;20564;-75
2021/10/28 21:07:48;;;;;;;7.20;5.13;;;;;;;;;;6211565;23;20801;-75
2021/10/28 21:10:14;;;;;;;7.63;5.90;;;;;;;;;;6211501;23;20383;-75
2021/10/28 21:12:40;;;;;;;10.77;6.70;;;;;;;;;;6211302;23;20367;-76
2021/10/28 21:15:06;;;;;;;8.57;6.70;;;;;;;;;;6210364;23;20405;-76
2021/10/28 21:17:32;;;;;;;6.37;5.67;;;;;;;;;;6208188;23;20175;-75
2021/10/28 21:19:57;;;;;;;6.80;6.10;;;;;;;;;;6211418;23;20394;-76
2021/10/28 21:22:22;;;;;;;10.03;6.50;;;;;;;;;;6211495;23;20158;-75
2021/10/28 21:24:50;;;;;;;7.07;6.10;;;;;;;;;;6210252;23;20537;-76
2021/10/28 21:27:16;;;;;;;7.40;6.33;;;;;;;;;;6210836;23;20140;-75
2021/10/28 21:29:41;;;;;;;10.80;6.50;;;;;;;;;;6212948;23;20363;-76
2021/10/28 21:32:09;;;;;;;10.37;7.43;;;;;;;;;;6213200;23;20445;-75
2021/10/28 21:34:35;;;;;;;11.83;7.53;;;;;;;;;;6212819;23;20183;-76
2021/10/28 21:37:01;;;;;;;8.33;7.13;;;;;;;;;;6186513;23;20374;-75
2021/10/28 21:39:27;;;;;;;7.87;7.10;;;;;;;;;;6213188;23;20371;-75
2021/10/28 21:41:52;;;;;;;9.20;7.70;;;;;;;;;;6212951;23;20371;-75
2021/10/28 21:44:17;;;;;;;9.33;7.70;;;;;;;;;;6213012;23;20622;-76
2021/10/28 21:46:43;;;;;;;9.60;8.70;;;;;;;;;;6212566;23;20537;-75
2021/10/28 21:49:08;;;;;;;13.07;8.70;;;;;;;;;;6213805;23;20144;-75
2021/10/28 21:51:34;;;;;;;9.80;8.70;;;;;;;;;;6213349;23;20198;-76
2021/10/28 21:54:03;;;;;;;9.27;8.37;;;;;;;;;;6210441;23;20194;-76
2021/10/28 21:56:34;;;;;;;12.63;8.50;;;;;;;;;;6213234;23;20152;-76
2021/10/28 21:59:24;;;;;;;9.90;8.90;;;;;;;;;;6186044;23;20366;-76
2021/10/28 22:02:05;;;;;;;14.93;8.50;;;;;;;;;;6213310;23;20697;-75
2021/10/28 22:25:50;;;;;;;10.40;9.37;;;;;;;;;;6213516;23;20433;-75
2021/10/28 22:28:16;;;;;;;11.73;8.43;;;;;;;;;;6213673;23;20836;-75
2021/10/28 22:30:41;;;;;;;11.27;9.60;;;;;;;;;;6212936;23;20239;-76
2021/10/28 22:33:06;;;;;;;12.70;9.07;;;;;;;;;;6212898;23;20151;-75
2021/10/28 22:35:35;;;;;;;10.47;9.37;;;;;;;;;;6212963;23;20179;-76
2021/10/28 22:38:03;;;;;;;11.37;9.17;;;;;;;;;;6212507;23;20148;-75
2021/10/28 22:40:40;;;;;;;10.40;9.20;;;;;;;;;;6213124;23;20406;-76
2021/10/28 22:43:10;;;;;;;10.57;9.10;;;;;;;;;;6211866;23;20794;-76
2021/10/28 22:45:36;;;;;;;10.27;9.13;;;;;;;;;;6211906;23;20427;-74
2021/10/28 22:48:02;;;;;;;9.67;8.77;;;;;;;;;;6213203;23;20367;-76
2021/10/28 22:50:28;;;;;;;9.93;8.80;;;;;;;;;;6213358;23;20446;-76
2021/10/28 22:52:57;;;;;;;9.53;8.57;;;;;;;;;;6212748;23;20421;-76
2021/10/28 22:55:27;;;;;;;11.20;9.00;;;;;;;;;;6213197;23;20168;-76
2021/10/28 22:58:10;;;;;;;10.90;9.50;;;;;;;;;;6213474;23;20705;-76
2021/10/28 23:06:51;;;;;;;13.07;9.80;;;;;;;;;;6212927;23;20448;-76
2021/10/28 23:10:08;;;;;;;12.60;9.43;;;;;;;;;;6201712;23;20367;-75
2021/10/28 23:12:16;;;;;;;13.00;9.93;;;;;;;;;;6211221;23;20371;-75
2021/10/28 23:15:19;;;;;;;9.93;8.93;;;;;;;;;;6210080;23;20869;-76
2021/10/28 23:23:00;;;;;;;11.20;9.37;;;;;;;;;;6212659;23;20354;-76
2021/10/28 23:25:26;;;;;;;13.30;11.37;;;;;;;;;;6212543;23;20501;-76
2021/10/28 23:27:51;;;;;;;11.03;9.50;;;;;;;;;;6213035;23;20143;-76
2021/10/28 23:30:16;;;;;;;15.00;10.63;;;;;;;;;;6212335;23;20647;-76
2021/10/28 23:32:42;;;;;;;10.17;9.13;;;;;;;;;;6212249;23;20489;-76
2021/10/28 23:35:07;;;;;;;14.23;10.93;;;;;;;;;;6212526;23;20183;-76
2021/10/28 23:37:32;;;;;;;14.17;11.17;;;;;;;;;;6213139;23;20203;-75
2021/10/28 23:39:57;;;;;;;12.73;10.93;;;;;;;;;;6212756;23;20148;-76
2021/10/28 23:42:23;;;;;;;13.53;11.60;;;;;;;;;;6210906;23;20154;-76
2021/10/28 23:44:48;;;;;;;12.97;11.10;;;;;;;;;;6211887;23;20193;-75
2021/10/28 23:47:13;;;;;;;14.13;11.57;;;;;;;;;;6211667;23;20184;-76
2021/10/28 23:49:38;;;;;;;12.43;11.07;;;;;;;;;;6212552;23;20144;-76
2021/10/28 23:52:04;;;;;;;18.07;12.63;;;;;;;;;;6211888;23;20140;-76
2021/10/28 23:54:32;;;;;;;13.00;11.03;;;;;;;;;;6210599;23;20164;-76
2021/10/28 23:56:57;;;;;;;14.90;12.23;;;;;;;;;;6212365;23;20497;-76
2021/10/28 23:59:22;;;;;;;15.37;11.90;;;;;;;;;;6211854;23;20370;-76
